sensor_id;sensor_type;location;lat;lon;timestamp;temperature;humidity
31975;DHT22;18500;43.618;1.474;2022-10-22T07:57:48;14.90;1.00
31975;DHT22;18500;43.618;1.474;2022-10-22T08:00:14;15.00;1.00
31975;DHT22;18500;43.618;1.474;2022-10-22T08:02:39;15.10;1.00
31975;DHT22;18500;43.618;1.474;2022-10-22T08:05:05;15.20;1.00
31975;DHT22;18500;43.618;1.474;2022-10-22T08:07:31;15.20;1.00
31975;DHT22;18500;43.618;1.474;2022-10-22T08:09:57;15.30;1.00
31975;DHT22;18500;43.618;1.474;2022-10-22T08:12:23;15.40;1.00
31975;DHT22;18500;43.618;1.474;2022-10-22T08:14:48;15.50;1.00
31975;DHT22;18500;43.618;1.474;2022-10-22T08:17:14;15.70;1.00
31975;DHT22;18500;43.618;1.474;2022-10-22T08:19:40;15.80;1.00
31975;DHT22;18500;43.618;1.474;2022-10-22T08:22:06;15.90;1.00
31975;DHT22;18500;43.618;1.474;2022-10-22T08:24:31;15.90;1.00
31975;DHT22;18500;43.618;1.474;2022-10-22T08:26:57;15.90;1.00
31975;DHT22;18500;43.618;1.474;2022-10-22T08:29:24;16.00;1.00
31975;DHT22;18500;43.618;1.474;2022-10-22T08:31:51;16.10;1.00
31975;DHT22;18500;43.618;1.474;2022-10-22T08:34:17;16.20;1.00
31975;DHT22;18500;43.618;1.474;2022-10-22T08:36:43;16.30;1.00
31975;DHT22;18500;43.618;1.474;2022-10-22T08:39:08;16.30;1.00
31975;DHT22;18500;43.618;1.474;2022-10-22T08:41:43;16.50;1.00
31975;DHT22;18500;43.618;1.474;2022-10-22T08:47:16;16.80;1.00
31975;DHT22;18500;43.618;1.474;2022-10-22T08:49:43;17.00;1.00
31975;DHT22;18500;43.618;1.474;2022-10-22T08:52:15;17.00;1.00
31975;DHT22;18500;43.618;1.474;2022-10-22T08:54:56;16.90;1.00
31975;DHT22;18500;43.618;1.474;2022-10-22T09:08:30;17.00;1.00
31975;DHT22;18500;43.618;1.474;2022-10-22T09:11:15;17.00;1.00
31975;DHT22;18500;43.618;1.474;2022-10-22T09:13:44;17.10;1.00
31975;DHT22;18500;43.618;1.474;2022-10-22T09:16:17;17.40;1.00
31975;DHT22;18500;43.618;1.474;2022-10-22T09:24:46;17.80;1.00
31975;DHT22;18500;43.618;1.474;2022-10-22T09:27:18;17.90;1.00
31975;DHT22;18500;43.618;1.474;2022-10-22T09:29:46;18.00;1.00
31975;DHT22;18500;43.618;1.474;2022-10-22T09:32:15;18.20;1.00
31975;DHT22;18500;43.618;1.474;2022-10-22T09:34:43;18.20;1.00
31975;DHT22;18500;43.618;1.474;2022-10-22T09:37:10;18.70;1.00
31975;DHT22;18500;43.618;1.474;2022-10-22T09:39:42;18.70;1.00
31975;DHT22;18500;43.618;1.474;2022-10-22T09:42:09;18.80;1.00
31975;DHT22;18500;43.618;1.474;2022-10-22T09:44:36;18.90;1.00
31975;DHT22;18500;43.618;1.474;2022-10-22T09:47:06;19.00;1.00
31975;DHT22;18500;43.618;1.474;2022-10-22T09:49:34;19.10;1.00
31975;DHT22;18500;43.618;1.474;2022-10-22T09:52:01;19.10;1.00
31975;DHT22;18500;43.618;1.474;2022-10-22T09:57:16;19.40;1.00
31975;DHT22;18500;43.618;1.474;2022-10-22T09:59:43;19.50;1.00
31975;DHT22;18500;43.618;1.474;2022-10-22T10:02:25;19.80;1.00
31975;DHT22;18500;43.618;1.474;2022-10-22T10:04:54;20.10;1.00
31975;DHT22;18500;43.618;1.474;2022-10-22T10:07:23;20.10;1.00
31975;DHT22;18500;43.618;1.474;2022-10-22T10:09:50;20.10;1.00
31975;DHT22;18500;43.618;1.474;2022-10-22T10:23:17;20.60;1.00
31975;DHT22;18500;43.618;1.474;2022-10-22T10:26:09;20.70;1.00
31975;DHT22;18500;43.618;1.474;2022-10-22T10:28:55;21.00;1.00
31975;DHT22;18500;43.618;1.474;2022-10-22T10:45:20;21.90;1.00
31975;DHT22;18500;43.618;1.474;2022-10-22T10:48:09;21.90;1.00
31975;DHT22;18500;43.618;1.474;2022-10-22T10:54:02;22.10;1.00
31975;DHT22;18500;43.618;1.474;2022-10-22T10:56:40;22.20;1.00
31975;DHT22;18500;43.618;1.474;2022-10-22T11:05:15;22.30;1.00
31975;DHT22;18500;43.618;1.474;2022-10-22T11:07:55;22.30;1.00
31975;DHT22;18500;43.618;1.474;2022-10-22T11:10:45;22.50;1.00
31975;DHT22;18500;43.618;1.474;2022-10-22T11:13:30;22.70;1.00
31975;DHT22;18500;43.618;1.474;2022-10-22T11:18:36;22.80;1.00
31975;DHT22;18500;43.618;1.474;2022-10-22T11:21:17;23.00;1.00
31975;DHT22;18500;43.618;1.474;2022-10-22T11:26:44;23.00;1.00
31975;DHT22;18500;43.618;1.474;2022-10-22T11:29:16;23.10;1.00
31975;DHT22;18500;43.618;1.474;2022-10-22T11:31:44;23.20;1.00
31975;DHT22;18500;43.618;1.474;2022-10-22T11:36:37;23.30;1.00
31975;DHT22;18500;43.618;1.474;2022-10-22T11:39:03;23.30;1.00
31975;DHT22;18500;43.618;1.474;2022-10-22T11:41:31;23.20;1.00
31975;DHT22;18500;43.618;1.474;2022-10-22T11:44:08;23.20;1.00
31975;DHT22;18500;43.618;1.474;2022-10-22T11:46:46;23.20;1.00
31975;DHT22;18500;43.618;1.474;2022-10-22T11:49:26;23.20;1.00
31975;DHT22;18500;43.618;1.474;2022-10-22T11:52:20;23.30;1.00
31975;DHT22;18500;43.618;1.474;2022-10-22T11:54:47;23.40;1.00
31975;DHT22;18500;43.618;1.474;2022-10-22T11:57:58;23.50;1.00
31975;DHT22;18500;43.618;1.474;2022-10-22T12:00:46;23.50;1.00
31975;DHT22;18500;43.618;1.474;2022-10-22T12:03:19;23.60;1.00
31975;DHT22;18500;43.618;1.474;2022-10-22T12:16:28;24.40;1.00
31975;DHT22;18500;43.618;1.474;2022-10-22T12:21:32;24.70;1.00
31975;DHT22;18500;43.618;1.474;2022-10-22T12:23:59;25.90;1.00
31975;DHT22;18500;43.618;1.474;2022-10-22T12:26:27;28.80;1.00
31975;DHT22;18500;43.618;1.474;2022-10-22T12:29:02;30.80;1.00
31975;DHT22;18500;43.618;1.474;2022-10-22T12:31:35;30.60;1.00
31975;DHT22;18500;43.618;1.474;2022-10-22T12:34:01;30.70;1.00
31975;DHT22;18500;43.618;1.474;2022-10-22T12:36:32;31.70;1.00
31975;DHT22;18500;43.618;1.474;2022-10-22T12:38:59;32.30;1.00
31975;DHT22;18500;43.618;1.474;2022-10-22T12:41:35;32.60;1.00
31975;DHT22;18500;43.618;1.474;2022-10-22T12:44:03;33.20;1.00
31975;DHT22;18500;43.618;1.474;2022-10-22T12:46:31;34.10;1.00
31975;DHT22;18500;43.618;1.474;2022-10-22T12:49:03;34.40;1.00
31975;DHT22;18500;43.618;1.474;2022-10-22T12:51:30;34.50;1.00
31975;DHT22;18500;43.618;1.474;2022-10-22T12:54:00;31.00;1.00
31975;DHT22;18500;43.618;1.474;2022-10-22T12:56:31;28.60;1.00
31975;DHT22;18500;43.618;1.474;2022-10-22T12:58:58;27.20;1.00
31975;DHT22;18500;43.618;1.474;2022-10-22T13:01:27;26.30;1.00
31975;DHT22;18500;43.618;1.474;2022-10-22T13:04:06;25.70;1.00
31975;DHT22;18500;43.618;1.474;2022-10-22T13:06:34;25.50;1.00
31975;DHT22;18500;43.618;1.474;2022-10-22T13:09:11;25.30;1.00
31975;DHT22;18500;43.618;1.474;2022-10-22T13:12:05;25.20;1.00
31975;DHT22;18500;43.618;1.474;2022-10-22T13:14:33;25.20;1.00
31975;DHT22;18500;43.618;1.474;2022-10-22T13:24:49;25.40;1.00
31975;DHT22;18500;43.618;1.474;2022-10-22T13:27:15;25.50;1.00
31975;DHT22;18500;43.618;1.474;2022-10-22T13:29:41;25.50;1.00
31975;DHT22;18500;43.618;1.474;2022-10-22T13:32:31;25.70;1.00
31975;DHT22;18500;43.618;1.474;2022-10-22T13:34:59;25.90;1.00
31975;DHT22;18500;43.618;1.474;2022-10-22T13:37:28;26.00;1.00
31975;DHT22;18500;43.618;1.474;2022-10-22T13:39:54;26.10;1.00
31975;DHT22;18500;43.618;1.474;2022-10-22T13:42:20;26.10;1.00
31975;DHT22;18500;43.618;1.474;2022-10-22T13:44:45;26.30;1.00
31975;DHT22;18500;43.618;1.474;2022-10-22T13:47:26;26.20;1.00
31975;DHT22;18500;43.618;1.474;2022-10-22T13:49:54;26.20;1.00
31975;DHT22;18500;43.618;1.474;2022-10-22T13:52:33;26.10;1.00
31975;DHT22;18500;43.618;1.474;2022-10-22T13:55:00;26.00;1.00
31975;DHT22;18500;43.618;1.474;2022-10-22T13:57:25;25.90;1.00
31975;DHT22;18500;43.618;1.474;2022-10-22T13:59:51;25.80;1.00
31975;DHT22;18500;43.618;1.474;2022-10-22T14:02:17;25.90;1.00
31975;DHT22;18500;43.618;1.474;2022-10-22T14:04:43;26.10;1.00
31975;DHT22;18500;43.618;1.474;2022-10-22T14:07:14;26.00;1.00
31975;DHT22;18500;43.618;1.474;2022-10-22T14:09:40;26.10;1.00
31975;DHT22;18500;43.618;1.474;2022-10-22T14:12:14;26.20;1.00
31975;DHT22;18500;43.618;1.474;2022-10-22T14:14:40;26.50;1.00
31975;DHT22;18500;43.618;1.474;2022-10-22T14:17:11;26.80;1.00
31975;DHT22;18500;43.618;1.474;2022-10-22T14:19:44;26.90;1.00
31975;DHT22;18500;43.618;1.474;2022-10-22T14:22:19;26.90;1.00
31975;DHT22;18500;43.618;1.474;2022-10-22T14:24:45;26.90;1.00
31975;DHT22;18500;43.618;1.474;2022-10-22T14:27:13;26.80;1.00
31975;DHT22;18500;43.618;1.474;2022-10-22T14:29:39;26.50;1.00
31975;DHT22;18500;43.618;1.474;2022-10-22T14:32:13;26.50;1.00
31975;DHT22;18500;43.618;1.474;2022-10-22T14:34:39;26.50;1.00
31975;DHT22;18500;43.618;1.474;2022-10-22T14:37:16;26.50;1.00
31975;DHT22;18500;43.618;1.474;2022-10-22T14:39:42;26.30;1.00
31975;DHT22;18500;43.618;1.474;2022-10-22T14:42:10;26.10;1.00
31975;DHT22;18500;43.618;1.474;2022-10-22T14:44:35;26.00;1.00
31975;DHT22;18500;43.618;1.474;2022-10-22T14:47:01;25.80;1.00
31975;DHT22;18500;43.618;1.474;2022-10-22T14:49:27;25.80;1.00
31975;DHT22;18500;43.618;1.474;2022-10-22T14:51:52;25.80;1.00
31975;DHT22;18500;43.618;1.474;2022-10-22T14:54:18;25.70;1.00
31975;DHT22;18500;43.618;1.474;2022-10-22T14:56:44;25.60;1.00
31975;DHT22;18500;43.618;1.474;2022-10-22T14:59:09;25.60;1.00
31975;DHT22;18500;43.618;1.474;2022-10-22T15:01:35;25.50;1.00
31975;DHT22;18500;43.618;1.474;2022-10-22T15:04:01;25.50;1.00
31975;DHT22;18500;43.618;1.474;2022-10-22T15:06:26;25.50;1.00
31975;DHT22;18500;43.618;1.474;2022-10-22T15:08:52;25.40;1.00
31975;DHT22;18500;43.618;1.474;2022-10-22T15:11:18;25.40;1.00
31975;DHT22;18500;43.618;1.474;2022-10-22T15:13:43;25.30;1.00
31975;DHT22;18500;43.618;1.474;2022-10-22T15:16:11;25.20;1.00
31975;DHT22;18500;43.618;1.474;2022-10-22T15:18:37;25.10;1.00
31975;DHT22;18500;43.618;1.474;2022-10-22T15:21:06;25.20;1.00
31975;DHT22;18500;43.618;1.474;2022-10-22T15:23:32;25.20;1.00
31975;DHT22;18500;43.618;1.474;2022-10-22T15:25:57;25.20;1.00
31975;DHT22;18500;43.618;1.474;2022-10-22T15:28:24;25.30;1.00
31975;DHT22;18500;43.618;1.474;2022-10-22T15:30:57;25.20;1.00
31975;DHT22;18500;43.618;1.474;2022-10-22T15:33:23;25.10;1.00
31975;DHT22;18500;43.618;1.474;2022-10-22T15:35:49;25.20;1.00
31975;DHT22;18500;43.618;1.474;2022-10-22T15:38:15;26.20;1.00
31975;DHT22;18500;43.618;1.474;2022-10-22T15:40:41;27.20;1.00
31975;DHT22;18500;43.618;1.474;2022-10-22T15:43:07;26.70;1.00
31975;DHT22;18500;43.618;1.474;2022-10-22T15:45:32;26.00;1.00
31975;DHT22;18500;43.618;1.474;2022-10-22T15:47:58;25.90;1.00
31975;DHT22;18500;43.618;1.474;2022-10-22T15:50:24;26.10;1.00
31975;DHT22;18500;43.618;1.474;2022-10-22T15:52:50;25.50;1.00
31975;DHT22;18500;43.618;1.474;2022-10-22T15:55:17;25.10;1.00
31975;DHT22;18500;43.618;1.474;2022-10-22T15:57:43;24.80;1.00
31975;DHT22;18500;43.618;1.474;2022-10-22T16:00:09;24.60;1.00
31975;DHT22;18500;43.618;1.474;2022-10-22T16:02:35;24.40;1.00
31975;DHT22;18500;43.618;1.474;2022-10-22T16:05:00;24.30;1.00
31975;DHT22;18500;43.618;1.474;2022-10-22T16:07:26;24.20;1.00
31975;DHT22;18500;43.618;1.474;2022-10-22T16:09:58;24.00;1.00
31975;DHT22;18500;43.618;1.474;2022-10-22T16:12:26;23.80;1.00
31975;DHT22;18500;43.618;1.474;2022-10-22T16:14:52;23.70;1.00
31975;DHT22;18500;43.618;1.474;2022-10-22T16:17:18;23.60;1.00
31975;DHT22;18500;43.618;1.474;2022-10-22T16:19:43;23.50;1.00
31975;DHT22;18500;43.618;1.474;2022-10-22T16:22:09;23.40;1.00
31975;DHT22;18500;43.618;1.474;2022-10-22T16:24:38;23.30;1.00
31975;DHT22;18500;43.618;1.474;2022-10-22T16:27:06;23.20;1.00
31975;DHT22;18500;43.618;1.474;2022-10-22T16:29:31;23.10;1.00
31975;DHT22;18500;43.618;1.474;2022-10-22T16:31:57;23.00;1.00
31975;DHT22;18500;43.618;1.474;2022-10-22T16:34:25;22.90;1.00
31975;DHT22;18500;43.618;1.474;2022-10-22T16:36:51;22.80;1.00
31975;DHT22;18500;43.618;1.474;2022-10-22T16:39:18;22.80;1.00
31975;DHT22;18500;43.618;1.474;2022-10-22T16:41:43;22.70;1.00
31975;DHT22;18500;43.618;1.474;2022-10-22T16:44:09;22.50;1.00
31975;DHT22;18500;43.618;1.474;2022-10-22T16:46:36;22.40;1.00
31975;DHT22;18500;43.618;1.474;2022-10-22T16:49:04;22.40;1.00
31975;DHT22;18500;43.618;1.474;2022-10-22T16:51:30;22.30;1.00
31975;DHT22;18500;43.618;1.474;2022-10-22T16:53:56;22.20;1.00
31975;DHT22;18500;43.618;1.474;2022-10-22T16:56:23;22.10;1.00
31975;DHT22;18500;43.618;1.474;2022-10-22T16:58:51;22.00;1.00
31975;DHT22;18500;43.618;1.474;2022-10-22T17:01:18;21.90;1.00
31975;DHT22;18500;43.618;1.474;2022-10-22T17:03:45;22.00;1.00
31975;DHT22;18500;43.618;1.474;2022-10-22T17:06:11;21.90;1.00
31975;DHT22;18500;43.618;1.474;2022-10-22T17:08:37;21.80;1.00
31975;DHT22;18500;43.618;1.474;2022-10-22T17:11:11;21.80;1.00
31975;DHT22;18500;43.618;1.474;2022-10-22T17:13:39;21.70;1.00
31975;DHT22;18500;43.618;1.474;2022-10-22T17:16:09;21.70;1.00
31975;DHT22;18500;43.618;1.474;2022-10-22T17:18:37;21.60;1.00
31975;DHT22;18500;43.618;1.474;2022-10-22T17:21:04;21.60;1.00
31975;DHT22;18500;43.618;1.474;2022-10-22T17:23:30;21.50;1.00
31975;DHT22;18500;43.618;1.474;2022-10-22T17:26:00;21.40;1.00
31975;DHT22;18500;43.618;1.474;2022-10-22T17:28:27;21.30;1.00
31975;DHT22;18500;43.618;1.474;2022-10-22T17:31:04;21.40;1.00
31975;DHT22;18500;43.618;1.474;2022-10-22T17:33:30;21.20;1.00
31975;DHT22;18500;43.618;1.474;2022-10-22T17:35:56;21.20;1.00
31975;DHT22;18500;43.618;1.474;2022-10-22T17:38:22;21.10;1.00
31975;DHT22;18500;43.618;1.474;2022-10-22T17:40:48;21.00;1.00
31975;DHT22;18500;43.618;1.474;2022-10-22T17:43:13;21.00;1.00
31975;DHT22;18500;43.618;1.474;2022-10-22T17:45:39;21.00;1.00
31975;DHT22;18500;43.618;1.474;2022-10-22T17:48:05;20.90;1.00
31975;DHT22;18500;43.618;1.474;2022-10-22T17:50:30;20.90;1.00
31975;DHT22;18500;43.618;1.474;2022-10-22T17:52:56;20.90;1.00
31975;DHT22;18500;43.618;1.474;2022-10-22T17:55:21;20.90;1.00
31975;DHT22;18500;43.618;1.474;2022-10-22T17:57:47;20.90;1.00
31975;DHT22;18500;43.618;1.474;2022-10-22T18:00:13;20.80;1.00
31975;DHT22;18500;43.618;1.474;2022-10-22T18:02:40;20.80;1.00
31975;DHT22;18500;43.618;1.474;2022-10-22T18:05:07;20.70;1.00
31975;DHT22;18500;43.618;1.474;2022-10-22T18:07:33;20.60;1.00
31975;DHT22;18500;43.618;1.474;2022-10-22T18:09:58;20.60;1.00
31975;DHT22;18500;43.618;1.474;2022-10-22T18:12:24;20.50;1.00
31975;DHT22;18500;43.618;1.474;2022-10-22T18:14:50;20.60;1.00
31975;DHT22;18500;43.618;1.474;2022-10-22T18:17:15;20.50;1.00
31975;DHT22;18500;43.618;1.474;2022-10-22T18:19:41;20.40;1.00
31975;DHT22;18500;43.618;1.474;2022-10-22T18:22:07;20.40;1.00
31975;DHT22;18500;43.618;1.474;2022-10-22T18:24:34;20.40;1.00
31975;DHT22;18500;43.618;1.474;2022-10-22T18:27:00;20.20;1.00
31975;DHT22;18500;43.618;1.474;2022-10-22T18:29:26;20.20;1.00
31975;DHT22;18500;43.618;1.474;2022-10-22T18:31:52;20.20;1.00
31975;DHT22;18500;43.618;1.474;2022-10-22T18:34:18;20.20;1.00
31975;DHT22;18500;43.618;1.474;2022-10-22T18:36:43;20.20;1.00
31975;DHT22;18500;43.618;1.474;2022-10-22T18:39:15;20.20;1.00
31975;DHT22;18500;43.618;1.474;2022-10-22T18:41:41;20.10;1.00
31975;DHT22;18500;43.618;1.474;2022-10-22T18:44:10;20.00;1.00
31975;DHT22;18500;43.618;1.474;2022-10-22T18:46:36;20.00;1.00
31975;DHT22;18500;43.618;1.474;2022-10-22T18:49:05;20.00;1.00
31975;DHT22;18500;43.618;1.474;2022-10-22T18:51:36;19.90;1.00
31975;DHT22;18500;43.618;1.474;2022-10-22T18:54:02;19.90;1.00
31975;DHT22;18500;43.618;1.474;2022-10-22T18:56:28;19.90;1.00
31975;DHT22;18500;43.618;1.474;2022-10-22T18:58:54;19.90;1.00
31975;DHT22;18500;43.618;1.474;2022-10-22T19:01:22;19.80;1.00
31975;DHT22;18500;43.618;1.474;2022-10-22T19:03:48;19.80;1.00
31975;DHT22;18500;43.618;1.474;2022-10-22T19:06:17;19.80;1.00
31975;DHT22;18500;43.618;1.474;2022-10-22T19:08:48;19.70;1.00
31975;DHT22;18500;43.618;1.474;2022-10-22T19:11:15;19.70;1.00
31975;DHT22;18500;43.618;1.474;2022-10-22T19:13:40;19.70;1.00
31975;DHT22;18500;43.618;1.474;2022-10-22T19:16:10;19.60;1.00
31975;DHT22;18500;43.618;1.474;2022-10-22T19:18:36;19.70;1.00
31975;DHT22;18500;43.618;1.474;2022-10-22T19:21:06;19.60;1.00
31975;DHT22;18500;43.618;1.474;2022-10-22T19:23:33;19.60;1.00
31975;DHT22;18500;43.618;1.474;2022-10-22T19:26:18;19.60;1.00
31975;DHT22;18500;43.618;1.474;2022-10-22T19:28:45;19.50;1.00
31975;DHT22;18500;43.618;1.474;2022-10-22T19:31:16;19.50;1.00
31975;DHT22;18500;43.618;1.474;2022-10-22T19:33:42;19.50;1.00
31975;DHT22;18500;43.618;1.474;2022-10-22T19:36:10;19.40;1.00
31975;DHT22;18500;43.618;1.474;2022-10-22T19:38:44;19.40;1.00
31975;DHT22;18500;43.618;1.474;2022-10-22T19:41:11;19.40;1.00
31975;DHT22;18500;43.618;1.474;2022-10-22T19:43:38;19.40;1.00
31975;DHT22;18500;43.618;1.474;2022-10-22T19:46:04;19.30;1.00
31975;DHT22;18500;43.618;1.474;2022-10-22T19:48:31;19.40;1.00
31975;DHT22;18500;43.618;1.474;2022-10-22T19:50:58;19.30;1.00
31975;DHT22;18500;43.618;1.474;2022-10-22T19:53:24;19.30;1.00
31975;DHT22;18500;43.618;1.474;2022-10-22T19:55:50;19.20;1.00
31975;DHT22;18500;43.618;1.474;2022-10-22T19:58:16;19.20;1.00
31975;DHT22;18500;43.618;1.474;2022-10-22T20:00:41;19.20;1.00
31975;DHT22;18500;43.618;1.474;2022-10-22T20:03:07;19.20;1.00
31975;DHT22;18500;43.618;1.474;2022-10-22T20:05:33;19.20;1.00
31975;DHT22;18500;43.618;1.474;2022-10-22T20:08:02;19.10;1.00
31975;DHT22;18500;43.618;1.474;2022-10-22T20:10:27;19.10;1.00
31975;DHT22;18500;43.618;1.474;2022-10-22T20:12:53;19.00;1.00
31975;DHT22;18500;43.618;1.474;2022-10-22T20:15:19;19.00;1.00
31975;DHT22;18500;43.618;1.474;2022-10-22T20:17:46;19.00;1.00
31975;DHT22;18500;43.618;1.474;2022-10-22T20:20:12;19.00;1.00
31975;DHT22;18500;43.618;1.474;2022-10-22T20:22:37;18.90;1.00
31975;DHT22;18500;43.618;1.474;2022-10-22T20:25:04;18.90;1.00
31975;DHT22;18500;43.618;1.474;2022-10-22T20:27:29;18.90;1.00
31975;DHT22;18500;43.618;1.474;2022-10-22T20:29:55;18.80;1.00
31975;DHT22;18500;43.618;1.474;2022-10-22T20:32:20;18.70;1.00
31975;DHT22;18500;43.618;1.474;2022-10-22T20:34:48;18.70;1.00
31975;DHT22;18500;43.618;1.474;2022-10-22T20:37:14;18.80;1.00
31975;DHT22;18500;43.618;1.474;2022-10-22T20:39:39;18.70;1.00
31975;DHT22;18500;43.618;1.474;2022-10-22T20:42:05;18.80;1.00
31975;DHT22;18500;43.618;1.474;2022-10-22T20:44:31;18.80;1.00
31975;DHT22;18500;43.618;1.474;2022-10-22T20:46:56;18.80;1.00
31975;DHT22;18500;43.618;1.474;2022-10-22T20:49:22;18.70;1.00
31975;DHT22;18500;43.618;1.474;2022-10-22T20:51:48;18.80;1.00
31975;DHT22;18500;43.618;1.474;2022-10-22T20:54:14;18.80;1.00
31975;DHT22;18500;43.618;1.474;2022-10-22T20:56:41;18.80;1.00
31975;DHT22;18500;43.618;1.474;2022-10-22T20:59:07;18.70;1.00
31975;DHT22;18500;43.618;1.474;2022-10-22T21:01:40;18.60;1.00
31975;DHT22;18500;43.618;1.474;2022-10-22T21:04:07;18.60;1.00
31975;DHT22;18500;43.618;1.474;2022-10-22T21:06:33;18.60;1.00
31975;DHT22;18500;43.618;1.474;2022-10-22T21:09:04;18.50;1.00
31975;DHT22;18500;43.618;1.474;2022-10-22T21:11:30;18.40;1.00
31975;DHT22;18500;43.618;1.474;2022-10-22T21:13:56;18.40;1.00
31975;DHT22;18500;43.618;1.474;2022-10-22T21:16:21;18.40;1.00
31975;DHT22;18500;43.618;1.474;2022-10-22T21:18:47;18.40;1.00
31975;DHT22;18500;43.618;1.474;2022-10-22T21:21:13;18.40;1.00
31975;DHT22;18500;43.618;1.474;2022-10-22T21:23:41;18.40;1.00
31975;DHT22;18500;43.618;1.474;2022-10-22T21:26:07;18.40;1.00
31975;DHT22;18500;43.618;1.474;2022-10-22T21:28:34;18.40;1.00
31975;DHT22;18500;43.618;1.474;2022-10-22T21:31:05;18.40;1.00
31975;DHT22;18500;43.618;1.474;2022-10-22T21:33:34;18.50;1.00
31975;DHT22;18500;43.618;1.474;2022-10-22T21:36:00;18.50;1.00
31975;DHT22;18500;43.618;1.474;2022-10-22T21:38:26;18.40;1.00
31975;DHT22;18500;43.618;1.474;2022-10-22T21:40:52;18.40;1.00
31975;DHT22;18500;43.618;1.474;2022-10-22T21:43:18;18.40;1.00
31975;DHT22;18500;43.618;1.474;2022-10-22T21:45:44;18.40;1.00
31975;DHT22;18500;43.618;1.474;2022-10-22T21:48:11;18.40;1.00
31975;DHT22;18500;43.618;1.474;2022-10-22T21:50:42;18.50;1.00
31975;DHT22;18500;43.618;1.474;2022-10-22T21:53:09;18.40;1.00
31975;DHT22;18500;43.618;1.474;2022-10-22T21:55:37;18.40;1.00
31975;DHT22;18500;43.618;1.474;2022-10-22T21:58:03;18.40;1.00
31975;DHT22;18500;43.618;1.474;2022-10-22T22:00:29;18.40;1.00
31975;DHT22;18500;43.618;1.474;2022-10-22T22:02:54;18.50;1.00
31975;DHT22;18500;43.618;1.474;2022-10-22T22:05:20;18.50;1.00
31975;DHT22;18500;43.618;1.474;2022-10-22T22:07:46;18.50;1.00
31975;DHT22;18500;43.618;1.474;2022-10-22T22:10:12;18.40;1.00
31975;DHT22;18500;43.618;1.474;2022-10-22T22:12:37;18.40;1.00
31975;DHT22;18500;43.618;1.474;2022-10-22T22:15:04;18.50;1.00
